createdAt,value
2023-02-27T00:00:36.246Z,5.05
2023-02-27T00:05:41.368Z,4.89
2023-02-27T00:10:44.247Z,5.06
2023-02-27T00:15:49.835Z,5.00
2023-02-27T00:20:53.000Z,5.01
2023-02-27T00:25:55.972Z,5.01
2023-02-27T00:30:59.108Z,5.01
2023-02-27T00:36:03.470Z,5.00
2023-02-27T00:41:06.860Z,5.02
2023-02-27T00:46:10.609Z,4.98
2023-02-27T00:51:13.721Z,4.97
2023-02-27T00:56:16.660Z,4.96
2023-02-27T01:01:20.836Z,4.85
2023-02-27T01:17:02.249Z,4.97
2023-02-27T01:22:05.154Z,5.00
2023-02-27T01:27:08.196Z,5.08
2023-02-27T01:32:13.269Z,5.31
2023-02-27T01:37:16.573Z,5.34
2023-02-27T01:42:28.968Z,5.35
2023-02-27T01:47:33.138Z,5.35
2023-02-27T01:52:37.658Z,5.49
2023-02-27T01:57:43.993Z,5.40
2023-02-27T02:03:15.982Z,5.38
2023-02-27T02:08:21.562Z,5.45
2023-02-27T02:13:25.550Z,5.35
2023-02-27T02:19:08.803Z,5.52
2023-02-27T02:24:40.703Z,5.52
2023-02-27T02:30:03.900Z,5.39
2023-02-27T02:35:09.997Z,5.42
2023-02-27T02:40:20.870Z,5.41
2023-02-27T02:45:34.046Z,5.43
2023-02-27T02:50:42.476Z,5.50
2023-02-27T02:55:55.582Z,5.42
2023-02-27T03:01:16.183Z,5.23
2023-02-27T03:06:33.311Z,5.33
2023-02-27T03:11:41.732Z,5.37
2023-02-27T03:16:51.542Z,5.50
2023-02-27T03:22:11.733Z,5.62
2023-02-27T03:27:17.179Z,5.75
2023-02-27T03:32:47.002Z,5.81
2023-02-27T03:38:05.507Z,5.76
2023-02-27T03:43:27.105Z,5.75
2023-02-27T03:48:31.696Z,5.78
2023-02-27T03:54:00.745Z,5.73
2023-02-27T03:59:04.498Z,5.73
2023-02-27T04:04:11.640Z,5.93
2023-02-27T04:09:54.348Z,5.74
2023-02-27T04:15:09.664Z,5.82
2023-02-27T04:20:30.568Z,5.94
2023-02-27T04:26:12.357Z,6.01
2023-02-27T04:31:46.160Z,6.19
2023-02-27T04:36:58.331Z,6.26
2023-02-27T04:42:13.577Z,6.43
2023-02-27T04:47:19.598Z,6.73
2023-02-27T04:52:30.496Z,6.82
2023-02-27T04:57:41.594Z,7.24
2023-02-27T05:02:55.073Z,7.33
2023-02-27T05:08:04.447Z,7.48
2023-02-27T05:13:27.485Z,7.56
2023-02-27T05:18:31.302Z,7.70
2023-02-27T05:23:46.326Z,7.91
2023-02-27T05:29:01.494Z,7.88
2023-02-27T05:34:24.693Z,8.16
2023-02-27T05:39:31.005Z,8.23
2023-02-27T05:44:56.569Z,8.57
2023-02-27T05:50:09.931Z,9.37
2023-02-27T05:55:37.152Z,9.75
2023-02-27T06:00:44.970Z,10.11
2023-02-27T06:05:50.148Z,10.43
2023-02-27T06:10:55.538Z,10.78
2023-02-27T06:15:58.706Z,10.74
2023-02-27T06:21:01.615Z,10.28
2023-02-27T06:26:04.959Z,10.43
2023-02-27T06:38:19.707Z,11.82
2023-02-27T06:43:23.609Z,12.17
2023-02-27T06:48:28.406Z,12.62
2023-02-27T06:53:31.780Z,12.74
2023-02-27T06:58:35.099Z,13.14
2023-02-27T07:03:38.542Z,13.81
2023-02-27T07:09:02.013Z,13.92
2023-02-27T07:14:07.420Z,14.52
2023-02-27T07:19:11.949Z,14.92
2023-02-27T07:24:15.152Z,15.08
2023-02-27T07:29:18.290Z,14.64
2023-02-27T07:34:22.062Z,14.79
2023-02-27T07:40:20.854Z,14.76
2023-02-27T07:45:24.194Z,14.89
2023-02-27T07:58:00.929Z,14.91
2023-02-27T08:03:09.344Z,14.67
2023-02-27T08:08:16.905Z,14.50
2023-02-27T08:13:30.100Z,14.56
2023-02-27T08:18:39.617Z,14.16
2023-02-27T08:23:42.784Z,14.07
2023-02-27T08:29:19.510Z,14.06
2023-02-27T08:34:27.719Z,13.95
2023-02-27T08:39:30.750Z,14.11
2023-02-27T08:44:34.180Z,13.71
2023-02-27T08:57:14.142Z,13.88
2023-02-27T09:02:18.661Z,14.02
2023-02-27T09:07:21.712Z,14.06
2023-02-27T09:12:25.979Z,14.26
2023-02-27T09:18:03.599Z,14.01
2023-02-27T09:23:22.096Z,13.96
2023-02-27T09:28:24.923Z,13.91
2023-02-27T09:33:34.398Z,13.92
2023-02-27T09:38:40.982Z,14.13
2023-02-27T09:43:48.604Z,14.16
2023-02-27T09:48:55.154Z,13.93
2023-02-27T09:54:01.820Z,13.97
2023-02-27T09:59:13.508Z,14.33
2023-02-27T10:04:40.962Z,14.55
2023-02-27T10:09:53.736Z,14.74
2023-02-27T10:15:11.493Z,14.55
2023-02-27T10:20:29.061Z,14.74
2023-02-27T10:25:39.903Z,14.85
2023-02-27T10:30:49.192Z,14.56
2023-02-27T10:35:54.134Z,14.63
2023-02-27T10:40:59.604Z,14.58
2023-02-27T10:46:07.693Z,14.68
2023-02-27T10:51:27.772Z,14.53
2023-02-27T10:56:33.150Z,14.84
2023-02-27T11:01:58.272Z,14.82
2023-02-27T11:07:07.666Z,15.10
2023-02-27T11:12:33.623Z,15.18
2023-02-27T11:17:37.431Z,15.03
2023-02-27T11:22:42.637Z,15.00
2023-02-27T11:27:50.177Z,14.87
2023-02-27T11:32:56.680Z,14.77
2023-02-27T11:38:20.391Z,14.56
2023-02-27T11:43:33.534Z,14.86
2023-02-27T11:49:19.205Z,14.93
2023-02-27T11:54:44.728Z,14.60
2023-02-27T12:00:43.662Z,14.75
2023-02-27T12:06:05.861Z,14.89
2023-02-27T12:11:36.477Z,14.81
2023-02-27T12:17:00.115Z,14.77
2023-02-27T12:22:10.166Z,14.63
2023-02-27T12:27:38.618Z,14.62
2023-02-27T12:32:49.905Z,14.37
2023-02-27T12:37:53.729Z,14.38
2023-02-27T12:43:10.662Z,14.28
2023-02-27T12:48:28.876Z,14.27
2023-02-27T12:54:01.362Z,14.12
2023-02-27T12:59:18.536Z,14.11
2023-02-27T13:04:42.982Z,13.87
2023-02-27T13:09:57.653Z,13.77
2023-02-27T13:15:06.771Z,13.59
2023-02-27T13:20:09.531Z,13.42
2023-02-27T13:25:15.898Z,13.29
2023-02-27T13:30:25.010Z,13.30
2023-02-27T13:35:36.444Z,13.09
2023-02-27T13:40:41.591Z,13.03
2023-02-27T13:45:51.005Z,13.01
2023-02-27T13:50:53.947Z,12.62
2023-02-27T13:56:21.030Z,12.74
2023-02-27T14:01:28.703Z,12.66
2023-02-27T14:06:32.285Z,12.54
2023-02-27T14:11:40.229Z,12.44
2023-02-27T14:16:48.524Z,12.32
2023-02-27T14:22:03.395Z,12.19
2023-02-27T14:27:27.908Z,12.28
2023-02-27T14:32:34.505Z,12.00
2023-02-27T14:37:37.609Z,11.96
2023-02-27T14:42:54.763Z,11.95
2023-02-27T14:47:59.171Z,11.91
2023-02-27T14:53:02.362Z,11.70
2023-02-27T14:58:08.327Z,11.79
2023-02-27T15:03:19.999Z,11.83
2023-02-27T15:08:27.017Z,11.44
2023-02-27T15:13:33.669Z,11.57
2023-02-27T15:18:40.634Z,11.14
2023-02-27T15:23:44.045Z,11.36
2023-02-27T15:28:49.127Z,11.40
2023-02-27T15:33:52.366Z,11.25
2023-02-27T15:39:19.397Z,11.41
2023-02-27T15:44:27.621Z,11.23
2023-02-27T15:49:30.964Z,11.01
2023-02-27T15:54:35.559Z,11.02
2023-02-27T15:59:42.865Z,10.92
2023-02-27T16:04:47.228Z,10.84
2023-02-27T16:10:08.278Z,10.78
2023-02-27T16:15:21.276Z,10.80
2023-02-27T16:20:55.304Z,10.76
2023-02-27T16:26:06.282Z,10.77
2023-02-27T16:31:31.143Z,10.64
2023-02-27T16:36:34.186Z,10.45
2023-02-27T16:41:37.097Z,10.23
2023-02-27T16:46:40.090Z,10.39
2023-02-27T16:51:42.983Z,10.25
2023-02-27T16:56:47.564Z,10.31
2023-02-27T17:01:50.709Z,10.35
2023-02-27T17:06:54.745Z,10.36
2023-02-27T17:11:58.313Z,10.37
2023-02-27T17:17:01.538Z,10.27
2023-02-27T17:22:04.495Z,10.30
2023-02-27T17:27:07.290Z,10.13
2023-02-27T17:32:10.325Z,10.18
2023-02-27T17:37:13.340Z,10.00
2023-02-27T17:42:19.794Z,9.93
2023-02-27T17:47:22.821Z,9.80
2023-02-27T17:52:26.070Z,9.73
2023-02-27T17:57:29.327Z,9.61
2023-02-27T18:02:32.880Z,9.57
2023-02-27T18:07:35.736Z,9.66
2023-02-27T18:12:38.739Z,9.62
2023-02-27T18:17:44.280Z,9.50
2023-02-27T18:22:47.521Z,9.43
2023-02-27T18:27:51.533Z,9.78
2023-02-27T18:32:57.431Z,9.65
2023-02-27T18:38:02.589Z,9.76
2023-02-27T18:43:05.595Z,9.85
2023-02-27T18:48:08.467Z,9.71
2023-02-27T18:53:11.433Z,9.71
2023-02-27T18:58:14.379Z,9.65
2023-02-27T19:03:17.293Z,9.62
2023-02-27T19:08:20.488Z,9.62
2023-02-27T19:13:23.945Z,9.70
2023-02-27T19:18:27.065Z,9.48
2023-02-27T19:23:30.329Z,9.74
2023-02-27T19:28:34.092Z,9.82
2023-02-27T19:33:36.976Z,9.57
2023-02-27T19:38:40.410Z,9.61
2023-02-27T19:43:43.896Z,9.76
2023-02-27T19:48:47.514Z,9.77
2023-02-27T19:53:50.406Z,9.62
2023-02-27T19:58:54.480Z,9.75
2023-02-27T20:03:57.925Z,9.67
2023-02-27T20:09:01.287Z,9.77
2023-02-27T20:14:04.893Z,9.82
2023-02-27T20:19:10.537Z,9.91
2023-02-27T20:24:14.950Z,9.96
2023-02-27T20:29:24.321Z,9.99
2023-02-27T20:34:27.316Z,9.83
2023-02-27T20:39:30.252Z,9.66
2023-02-27T20:44:33.195Z,9.71
2023-02-27T20:49:36.769Z,9.65
2023-02-27T20:54:39.856Z,9.67
2023-02-27T20:59:42.681Z,9.44
2023-02-27T21:04:47.649Z,9.14
2023-02-27T21:09:51.450Z,8.85
2023-02-27T21:14:54.512Z,8.58
2023-02-27T21:19:57.173Z,8.66
2023-02-27T21:25:00.232Z,8.43
2023-02-27T21:30:03.189Z,8.50
2023-02-27T21:35:07.135Z,8.61
2023-02-27T21:40:11.068Z,8.74
2023-02-27T21:45:14.304Z,8.88
2023-02-27T21:50:18.595Z,8.90
2023-02-27T21:55:21.491Z,9.07
2023-02-27T22:00:26.882Z,8.95
2023-02-27T22:05:30.071Z,9.05
2023-02-27T22:10:48.418Z,8.94
2023-02-27T22:15:51.585Z,9.03
2023-02-27T22:20:54.503Z,9.04
2023-02-27T22:26:05.377Z,9.02
2023-02-27T22:31:10.929Z,9.16
2023-02-27T22:36:20.561Z,9.25
2023-02-27T22:41:26.853Z,9.11
2023-02-27T22:46:35.588Z,9.11
2023-02-27T22:51:38.636Z,8.92
2023-02-27T22:56:42.314Z,8.51
2023-02-27T23:01:45.361Z,8.78
2023-02-27T23:06:50.436Z,8.61
2023-02-27T23:11:55.136Z,8.64
2023-02-27T23:16:59.244Z,8.22
2023-02-27T23:22:02.116Z,7.55
2023-02-27T23:27:23.402Z,7.58
2023-02-27T23:32:28.309Z,7.69
2023-02-27T23:37:31.196Z,7.05
2023-02-27T23:42:34.531Z,7.41
2023-02-27T23:47:48.956Z,6.91
2023-02-27T23:52:53.750Z,6.68
2023-02-27T23:57:59.985Z,6.43
